sensor_id;sensor_type;location;lat;lon;timestamp;temperature;humidity
45012;DHT22;63444;48.148;11.542;2023-05-10T00:00:44;15.60;99.90
45012;DHT22;63444;48.148;11.542;2023-05-10T00:03:11;15.60;99.90
45012;DHT22;63444;48.148;11.542;2023-05-10T00:05:37;15.50;99.90
45012;DHT22;63444;48.148;11.542;2023-05-10T00:08:03;15.50;99.90
45012;DHT22;63444;48.148;11.542;2023-05-10T00:10:28;15.60;99.90
45012;DHT22;63444;48.148;11.542;2023-05-10T00:12:54;15.70;99.90
45012;DHT22;63444;48.148;11.542;2023-05-10T00:15:19;15.60;99.90
45012;DHT22;63444;48.148;11.542;2023-05-10T00:17:45;15.60;99.90
45012;DHT22;63444;48.148;11.542;2023-05-10T00:20:11;15.50;99.90
45012;DHT22;63444;48.148;11.542;2023-05-10T00:22:36;15.30;99.90
45012;DHT22;63444;48.148;11.542;2023-05-10T00:25:02;15.50;99.90
45012;DHT22;63444;48.148;11.542;2023-05-10T00:27:28;15.50;99.90
45012;DHT22;63444;48.148;11.542;2023-05-10T00:29:53;15.50;99.90
45012;DHT22;63444;48.148;11.542;2023-05-10T00:32:19;15.50;99.90
45012;DHT22;63444;48.148;11.542;2023-05-10T00:34:44;15.50;99.90
45012;DHT22;63444;48.148;11.542;2023-05-10T00:37:10;15.50;99.90
45012;DHT22;63444;48.148;11.542;2023-05-10T00:39:36;15.60;99.90
45012;DHT22;63444;48.148;11.542;2023-05-10T00:42:01;15.60;99.90
45012;DHT22;63444;48.148;11.542;2023-05-10T00:44:27;15.60;99.90
45012;DHT22;63444;48.148;11.542;2023-05-10T00:46:52;15.50;99.90
45012;DHT22;63444;48.148;11.542;2023-05-10T00:49:19;15.50;99.90
45012;DHT22;63444;48.148;11.542;2023-05-10T00:51:45;15.40;99.90
45012;DHT22;63444;48.148;11.542;2023-05-10T00:54:11;15.30;99.90
45012;DHT22;63444;48.148;11.542;2023-05-10T00:56:39;15.20;99.90
45012;DHT22;63444;48.148;11.542;2023-05-10T00:59:05;15.20;99.90
45012;DHT22;63444;48.148;11.542;2023-05-10T01:01:32;15.30;99.90
45012;DHT22;63444;48.148;11.542;2023-05-10T01:03:58;15.30;99.90
45012;DHT22;63444;48.148;11.542;2023-05-10T01:06:24;15.20;99.90
45012;DHT22;63444;48.148;11.542;2023-05-10T01:08:49;15.20;99.90
45012;DHT22;63444;48.148;11.542;2023-05-10T01:11:15;15.10;99.90
45012;DHT22;63444;48.148;11.542;2023-05-10T01:13:42;15.00;99.90
45012;DHT22;63444;48.148;11.542;2023-05-10T01:16:08;15.00;99.90
45012;DHT22;63444;48.148;11.542;2023-05-10T01:18:37;15.00;99.90
45012;DHT22;63444;48.148;11.542;2023-05-10T01:37:28;15.00;99.90
45012;DHT22;63444;48.148;11.542;2023-05-10T01:40:11;15.00;99.90
45012;DHT22;63444;48.148;11.542;2023-05-10T01:42:54;15.00;99.90
45012;DHT22;63444;48.148;11.542;2023-05-10T01:45:28;15.10;99.90
45012;DHT22;63444;48.148;11.542;2023-05-10T01:48:08;15.00;99.90
45012;DHT22;63444;48.148;11.542;2023-05-10T01:50:37;15.00;99.90
45012;DHT22;63444;48.148;11.542;2023-05-10T01:53:06;14.90;99.90
45012;DHT22;63444;48.148;11.542;2023-05-10T01:55:47;14.90;99.90
45012;DHT22;63444;48.148;11.542;2023-05-10T01:58:17;14.80;99.90
45012;DHT22;63444;48.148;11.542;2023-05-10T02:00:44;14.90;99.90
45012;DHT22;63444;48.148;11.542;2023-05-10T02:03:12;14.90;99.90
45012;DHT22;63444;48.148;11.542;2023-05-10T02:05:38;15.00;99.90
45012;DHT22;63444;48.148;11.542;2023-05-10T02:08:06;15.00;99.90
45012;DHT22;63444;48.148;11.542;2023-05-10T02:10:36;14.80;99.90
45012;DHT22;63444;48.148;11.542;2023-05-10T02:13:03;14.80;99.90
45012;DHT22;63444;48.148;11.542;2023-05-10T02:15:29;14.70;99.90
45012;DHT22;63444;48.148;11.542;2023-05-10T02:17:57;14.70;99.90
45012;DHT22;63444;48.148;11.542;2023-05-10T02:20:24;14.60;99.90
45012;DHT22;63444;48.148;11.542;2023-05-10T02:22:53;14.50;99.90
45012;DHT22;63444;48.148;11.542;2023-05-10T02:25:21;14.70;99.90
45012;DHT22;63444;48.148;11.542;2023-05-10T02:27:47;14.60;99.90
45012;DHT22;63444;48.148;11.542;2023-05-10T02:30:13;14.70;99.90
45012;DHT22;63444;48.148;11.542;2023-05-10T02:32:40;14.70;99.90
45012;DHT22;63444;48.148;11.542;2023-05-10T02:35:07;14.80;99.90
45012;DHT22;63444;48.148;11.542;2023-05-10T02:37:34;14.70;99.90
45012;DHT22;63444;48.148;11.542;2023-05-10T02:40:01;14.70;99.90
45012;DHT22;63444;48.148;11.542;2023-05-10T02:42:29;14.70;99.90
45012;DHT22;63444;48.148;11.542;2023-05-10T02:45:01;14.70;99.90
45012;DHT22;63444;48.148;11.542;2023-05-10T02:47:29;14.70;99.90
45012;DHT22;63444;48.148;11.542;2023-05-10T02:49:55;14.70;99.90
45012;DHT22;63444;48.148;11.542;2023-05-10T02:52:26;14.70;99.90
45012;DHT22;63444;48.148;11.542;2023-05-10T02:54:55;14.70;99.90
45012;DHT22;63444;48.148;11.542;2023-05-10T02:57:26;14.80;99.90
45012;DHT22;63444;48.148;11.542;2023-05-10T02:59:52;14.60;99.90
45012;DHT22;63444;48.148;11.542;2023-05-10T03:02:18;14.70;99.90
45012;DHT22;63444;48.148;11.542;2023-05-10T03:04:44;14.80;99.90
45012;DHT22;63444;48.148;11.542;2023-05-10T03:07:09;14.60;99.90
45012;DHT22;63444;48.148;11.542;2023-05-10T03:09:35;14.60;99.90
45012;DHT22;63444;48.148;11.542;2023-05-10T03:12:11;14.60;99.90
45012;DHT22;63444;48.148;11.542;2023-05-10T03:17:25;14.70;99.90
45012;DHT22;63444;48.148;11.542;2023-05-10T03:19:56;14.70;99.90
45012;DHT22;63444;48.148;11.542;2023-05-10T03:22:34;14.60;99.90
45012;DHT22;63444;48.148;11.542;2023-05-10T03:25:05;14.60;99.90
45012;DHT22;63444;48.148;11.542;2023-05-10T03:27:32;14.60;99.90
45012;DHT22;63444;48.148;11.542;2023-05-10T03:29:59;14.60;99.90
45012;DHT22;63444;48.148;11.542;2023-05-10T03:32:26;14.70;99.90
45012;DHT22;63444;48.148;11.542;2023-05-10T03:34:54;14.50;99.90
45012;DHT22;63444;48.148;11.542;2023-05-10T03:37:19;14.60;99.90
45012;DHT22;63444;48.148;11.542;2023-05-10T03:39:45;14.60;99.90
45012;DHT22;63444;48.148;11.542;2023-05-10T03:42:10;14.60;99.90
45012;DHT22;63444;48.148;11.542;2023-05-10T03:44:39;14.60;99.90
45012;DHT22;63444;48.148;11.542;2023-05-10T03:47:04;14.60;99.90
45012;DHT22;63444;48.148;11.542;2023-05-10T03:49:30;14.50;99.90
45012;DHT22;63444;48.148;11.542;2023-05-10T03:51:57;14.50;99.90
45012;DHT22;63444;48.148;11.542;2023-05-10T03:54:22;14.50;99.90
45012;DHT22;63444;48.148;11.542;2023-05-10T03:56:48;14.40;99.90
45012;DHT22;63444;48.148;11.542;2023-05-10T03:59:13;14.50;99.90
45012;DHT22;63444;48.148;11.542;2023-05-10T04:01:39;14.40;99.90
45012;DHT22;63444;48.148;11.542;2023-05-10T04:04:05;14.40;99.90
45012;DHT22;63444;48.148;11.542;2023-05-10T04:06:30;14.40;99.90
45012;DHT22;63444;48.148;11.542;2023-05-10T04:08:56;14.40;99.90
45012;DHT22;63444;48.148;11.542;2023-05-10T04:11:25;14.50;99.90
45012;DHT22;63444;48.148;11.542;2023-05-10T04:13:50;14.40;99.90
45012;DHT22;63444;48.148;11.542;2023-05-10T04:16:16;14.40;99.90
45012;DHT22;63444;48.148;11.542;2023-05-10T04:18:42;14.50;99.90
45012;DHT22;63444;48.148;11.542;2023-05-10T04:21:14;14.50;99.90
45012;DHT22;63444;48.148;11.542;2023-05-10T04:23:41;14.40;99.90
45012;DHT22;63444;48.148;11.542;2023-05-10T04:26:07;14.40;99.90
45012;DHT22;63444;48.148;11.542;2023-05-10T04:28:32;14.40;99.90
45012;DHT22;63444;48.148;11.542;2023-05-10T04:33:27;14.20;99.90
45012;DHT22;63444;48.148;11.542;2023-05-10T04:35:53;14.30;99.90
45012;DHT22;63444;48.148;11.542;2023-05-10T04:38:18;14.30;99.90
45012;DHT22;63444;48.148;11.542;2023-05-10T04:40:44;14.40;99.90
45012;DHT22;63444;48.148;11.542;2023-05-10T04:43:10;14.40;99.90
45012;DHT22;63444;48.148;11.542;2023-05-10T04:45:35;14.40;99.90
45012;DHT22;63444;48.148;11.542;2023-05-10T04:48:01;14.40;99.90
45012;DHT22;63444;48.148;11.542;2023-05-10T04:50:26;14.40;99.90
45012;DHT22;63444;48.148;11.542;2023-05-10T04:52:52;14.30;99.90
45012;DHT22;63444;48.148;11.542;2023-05-10T04:55:17;14.20;99.90
45012;DHT22;63444;48.148;11.542;2023-05-10T04:57:43;14.10;99.90
45012;DHT22;63444;48.148;11.542;2023-05-10T05:00:09;14.10;99.90
45012;DHT22;63444;48.148;11.542;2023-05-10T05:02:34;14.00;99.90
45012;DHT22;63444;48.148;11.542;2023-05-10T05:05:00;14.00;99.90
45012;DHT22;63444;48.148;11.542;2023-05-10T05:07:26;14.10;99.90
45012;DHT22;63444;48.148;11.542;2023-05-10T05:09:51;14.20;99.90
45012;DHT22;63444;48.148;11.542;2023-05-10T05:12:17;14.10;99.90
45012;DHT22;63444;48.148;11.542;2023-05-10T05:14:42;14.10;99.90
45012;DHT22;63444;48.148;11.542;2023-05-10T05:17:08;14.10;99.90
45012;DHT22;63444;48.148;11.542;2023-05-10T05:19:34;14.10;99.90
45012;DHT22;63444;48.148;11.542;2023-05-10T05:21:59;14.10;99.90
45012;DHT22;63444;48.148;11.542;2023-05-10T05:24:25;14.00;99.90
45012;DHT22;63444;48.148;11.542;2023-05-10T05:26:50;14.00;99.90
45012;DHT22;63444;48.148;11.542;2023-05-10T05:29:16;14.00;99.90
45012;DHT22;63444;48.148;11.542;2023-05-10T05:31:41;14.00;99.90
45012;DHT22;63444;48.148;11.542;2023-05-10T05:34:07;14.00;99.90
45012;DHT22;63444;48.148;11.542;2023-05-10T05:36:36;14.00;99.90
45012;DHT22;63444;48.148;11.542;2023-05-10T05:39:05;14.00;99.90
45012;DHT22;63444;48.148;11.542;2023-05-10T05:41:31;14.00;99.90
45012;DHT22;63444;48.148;11.542;2023-05-10T05:43:56;13.90;99.90
45012;DHT22;63444;48.148;11.542;2023-05-10T05:46:22;14.00;99.90
45012;DHT22;63444;48.148;11.542;2023-05-10T05:48:47;14.00;99.90
45012;DHT22;63444;48.148;11.542;2023-05-10T05:51:13;13.80;99.90
45012;DHT22;63444;48.148;11.542;2023-05-10T05:53:38;13.80;99.90
45012;DHT22;63444;48.148;11.542;2023-05-10T05:56:04;13.80;99.90
45012;DHT22;63444;48.148;11.542;2023-05-10T05:58:30;13.90;99.90
45012;DHT22;63444;48.148;11.542;2023-05-10T06:00:55;14.00;99.90
45012;DHT22;63444;48.148;11.542;2023-05-10T06:03:21;13.90;99.90
45012;DHT22;63444;48.148;11.542;2023-05-10T06:05:46;14.10;99.90
45012;DHT22;63444;48.148;11.542;2023-05-10T06:08:12;14.10;99.90
45012;DHT22;63444;48.148;11.542;2023-05-10T06:10:38;14.00;99.90
45012;DHT22;63444;48.148;11.542;2023-05-10T06:13:03;14.00;99.90
45012;DHT22;63444;48.148;11.542;2023-05-10T06:15:29;14.00;99.90
45012;DHT22;63444;48.148;11.542;2023-05-10T06:17:55;14.00;99.90
45012;DHT22;63444;48.148;11.542;2023-05-10T06:20:21;14.10;99.90
45012;DHT22;63444;48.148;11.542;2023-05-10T06:22:46;14.10;99.90
45012;DHT22;63444;48.148;11.542;2023-05-10T06:25:12;14.00;99.90
45012;DHT22;63444;48.148;11.542;2023-05-10T06:27:38;14.00;99.90
45012;DHT22;63444;48.148;11.542;2023-05-10T06:30:04;14.10;99.90
45012;DHT22;63444;48.148;11.542;2023-05-10T06:32:30;14.10;99.90
45012;DHT22;63444;48.148;11.542;2023-05-10T06:34:56;14.10;99.90
45012;DHT22;63444;48.148;11.542;2023-05-10T06:37:23;14.30;99.90
45012;DHT22;63444;48.148;11.542;2023-05-10T06:39:49;14.10;99.90
45012;DHT22;63444;48.148;11.542;2023-05-10T06:42:14;14.10;99.90
45012;DHT22;63444;48.148;11.542;2023-05-10T06:44:40;14.20;99.90
45012;DHT22;63444;48.148;11.542;2023-05-10T06:47:05;14.00;99.90
45012;DHT22;63444;48.148;11.542;2023-05-10T06:49:31;14.20;99.90
45012;DHT22;63444;48.148;11.542;2023-05-10T06:51:57;14.20;99.90
45012;DHT22;63444;48.148;11.542;2023-05-10T06:54:22;14.20;99.90
45012;DHT22;63444;48.148;11.542;2023-05-10T06:56:48;14.30;99.90
45012;DHT22;63444;48.148;11.542;2023-05-10T06:59:14;14.20;99.90
45012;DHT22;63444;48.148;11.542;2023-05-10T07:01:41;14.30;99.90
45012;DHT22;63444;48.148;11.542;2023-05-10T07:04:07;14.30;99.90
45012;DHT22;63444;48.148;11.542;2023-05-10T07:06:33;14.30;99.90
45012;DHT22;63444;48.148;11.542;2023-05-10T07:08:59;14.40;99.90
45012;DHT22;63444;48.148;11.542;2023-05-10T07:11:25;14.40;99.90
45012;DHT22;63444;48.148;11.542;2023-05-10T07:13:52;14.30;99.90
45012;DHT22;63444;48.148;11.542;2023-05-10T07:16:17;14.50;99.90
45012;DHT22;63444;48.148;11.542;2023-05-10T07:18:43;14.50;99.90
45012;DHT22;63444;48.148;11.542;2023-05-10T07:21:08;14.50;99.90
45012;DHT22;63444;48.148;11.542;2023-05-10T07:23:35;14.60;99.90
45012;DHT22;63444;48.148;11.542;2023-05-10T07:26:01;14.70;99.90
45012;DHT22;63444;48.148;11.542;2023-05-10T07:28:27;14.80;99.90
45012;DHT22;63444;48.148;11.542;2023-05-10T07:30:53;15.10;99.90
45012;DHT22;63444;48.148;11.542;2023-05-10T07:33:18;15.00;99.90
45012;DHT22;63444;48.148;11.542;2023-05-10T07:35:44;15.10;99.90
45012;DHT22;63444;48.148;11.542;2023-05-10T07:38:10;15.20;99.90
45012;DHT22;63444;48.148;11.542;2023-05-10T07:40:36;15.20;99.90
45012;DHT22;63444;48.148;11.542;2023-05-10T07:43:02;15.30;99.90
45012;DHT22;63444;48.148;11.542;2023-05-10T07:45:28;15.20;99.90
45012;DHT22;63444;48.148;11.542;2023-05-10T07:47:54;15.30;99.90
45012;DHT22;63444;48.148;11.542;2023-05-10T07:50:19;15.40;99.90
45012;DHT22;63444;48.148;11.542;2023-05-10T07:52:46;15.50;99.90
45012;DHT22;63444;48.148;11.542;2023-05-10T07:55:12;15.60;99.90
45012;DHT22;63444;48.148;11.542;2023-05-10T07:57:38;15.70;99.90
45012;DHT22;63444;48.148;11.542;2023-05-10T08:00:05;16.00;99.90
45012;DHT22;63444;48.148;11.542;2023-05-10T08:02:30;16.10;99.90
45012;DHT22;63444;48.148;11.542;2023-05-10T08:04:56;16.20;99.90
45012;DHT22;63444;48.148;11.542;2023-05-10T08:07:24;16.30;99.90
45012;DHT22;63444;48.148;11.542;2023-05-10T08:09:49;16.40;99.90
45012;DHT22;63444;48.148;11.542;2023-05-10T08:12:15;16.50;99.90
45012;DHT22;63444;48.148;11.542;2023-05-10T08:14:41;16.50;99.90
45012;DHT22;63444;48.148;11.542;2023-05-10T08:17:06;16.50;99.90
45012;DHT22;63444;48.148;11.542;2023-05-10T08:19:32;16.60;99.90
45012;DHT22;63444;48.148;11.542;2023-05-10T08:21:57;16.50;99.90
45012;DHT22;63444;48.148;11.542;2023-05-10T08:24:23;16.50;99.90
45012;DHT22;63444;48.148;11.542;2023-05-10T08:26:49;16.50;99.90
45012;DHT22;63444;48.148;11.542;2023-05-10T08:29:15;16.40;99.90
45012;DHT22;63444;48.148;11.542;2023-05-10T08:31:40;16.60;99.90
45012;DHT22;63444;48.148;11.542;2023-05-10T08:34:06;16.50;99.90
45012;DHT22;63444;48.148;11.542;2023-05-10T08:36:32;16.40;99.90
45012;DHT22;63444;48.148;11.542;2023-05-10T08:38:58;16.40;99.90
45012;DHT22;63444;48.148;11.542;2023-05-10T08:41:24;16.30;99.90
45012;DHT22;63444;48.148;11.542;2023-05-10T08:43:51;16.30;99.90
45012;DHT22;63444;48.148;11.542;2023-05-10T08:46:18;16.20;99.90
45012;DHT22;63444;48.148;11.542;2023-05-10T08:48:45;16.20;99.90
45012;DHT22;63444;48.148;11.542;2023-05-10T08:51:17;16.30;99.90
45012;DHT22;63444;48.148;11.542;2023-05-10T08:53:44;16.20;99.90
45012;DHT22;63444;48.148;11.542;2023-05-10T08:56:09;16.20;99.90
45012;DHT22;63444;48.148;11.542;2023-05-10T08:58:36;16.10;99.90
45012;DHT22;63444;48.148;11.542;2023-05-10T09:01:02;16.10;99.90
45012;DHT22;63444;48.148;11.542;2023-05-10T09:03:28;16.10;99.90
45012;DHT22;63444;48.148;11.542;2023-05-10T09:05:54;16.10;99.90
45012;DHT22;63444;48.148;11.542;2023-05-10T09:08:22;16.00;99.90
45012;DHT22;63444;48.148;11.542;2023-05-10T09:10:50;16.10;99.90
45012;DHT22;63444;48.148;11.542;2023-05-10T09:13:17;16.20;99.90
45012;DHT22;63444;48.148;11.542;2023-05-10T09:15:44;16.50;99.90
45012;DHT22;63444;48.148;11.542;2023-05-10T09:18:10;16.90;99.90
45012;DHT22;63444;48.148;11.542;2023-05-10T09:20:36;17.30;99.90
45012;DHT22;63444;48.148;11.542;2023-05-10T09:23:01;17.40;99.90
45012;DHT22;63444;48.148;11.542;2023-05-10T09:25:27;17.60;99.90
45012;DHT22;63444;48.148;11.542;2023-05-10T09:27:52;17.50;99.90
45012;DHT22;63444;48.148;11.542;2023-05-10T09:30:29;17.40;99.90
45012;DHT22;63444;48.148;11.542;2023-05-10T09:32:56;17.30;99.90
45012;DHT22;63444;48.148;11.542;2023-05-10T09:35:24;17.10;99.90
45012;DHT22;63444;48.148;11.542;2023-05-10T09:37:53;17.10;99.90
45012;DHT22;63444;48.148;11.542;2023-05-10T09:40:23;17.10;99.90
45012;DHT22;63444;48.148;11.542;2023-05-10T09:43:01;17.10;99.90
45012;DHT22;63444;48.148;11.542;2023-05-10T09:45:29;17.10;99.90
45012;DHT22;63444;48.148;11.542;2023-05-10T09:47:56;17.00;99.90
45012;DHT22;63444;48.148;11.542;2023-05-10T09:50:23;17.20;99.90
45012;DHT22;63444;48.148;11.542;2023-05-10T09:55:17;17.20;99.90
45012;DHT22;63444;48.148;11.542;2023-05-10T09:57:43;17.30;99.90
45012;DHT22;63444;48.148;11.542;2023-05-10T10:00:09;17.40;99.90
45012;DHT22;63444;48.148;11.542;2023-05-10T10:02:35;17.40;99.90
45012;DHT22;63444;48.148;11.542;2023-05-10T10:05:02;17.40;99.90
45012;DHT22;63444;48.148;11.542;2023-05-10T10:07:31;17.40;99.90
45012;DHT22;63444;48.148;11.542;2023-05-10T10:09:56;17.50;99.90
45012;DHT22;63444;48.148;11.542;2023-05-10T10:12:23;17.40;99.90
45012;DHT22;63444;48.148;11.542;2023-05-10T10:14:49;17.40;99.90
45012;DHT22;63444;48.148;11.542;2023-05-10T10:17:16;17.50;99.90
45012;DHT22;63444;48.148;11.542;2023-05-10T10:19:42;17.60;99.90
45012;DHT22;63444;48.148;11.542;2023-05-10T10:22:07;17.70;99.90
45012;DHT22;63444;48.148;11.542;2023-05-10T10:24:33;17.80;99.90
45012;DHT22;63444;48.148;11.542;2023-05-10T10:27:28;17.90;99.90
45012;DHT22;63444;48.148;11.542;2023-05-10T10:32:59;17.90;99.90
45012;DHT22;63444;48.148;11.542;2023-05-10T10:35:31;18.00;99.90
45012;DHT22;63444;48.148;11.542;2023-05-10T10:37:57;18.10;99.90
45012;DHT22;63444;48.148;11.542;2023-05-10T10:40:30;18.30;99.90
45012;DHT22;63444;48.148;11.542;2023-05-10T10:42:58;18.30;99.90
45012;DHT22;63444;48.148;11.542;2023-05-10T10:45:25;18.30;99.90
45012;DHT22;63444;48.148;11.542;2023-05-10T10:48:23;18.20;99.90
45012;DHT22;63444;48.148;11.542;2023-05-10T10:50:57;18.30;99.90
45012;DHT22;63444;48.148;11.542;2023-05-10T10:53:26;18.30;99.90
45012;DHT22;63444;48.148;11.542;2023-05-10T10:56:05;18.30;99.90
45012;DHT22;63444;48.148;11.542;2023-05-10T10:58:32;18.20;99.90
45012;DHT22;63444;48.148;11.542;2023-05-10T11:01:15;18.20;99.90
45012;DHT22;63444;48.148;11.542;2023-05-10T11:06:31;17.80;99.90
45012;DHT22;63444;48.148;11.542;2023-05-10T11:09:09;17.70;99.90
45012;DHT22;63444;48.148;11.542;2023-05-10T11:11:36;17.60;99.90
45012;DHT22;63444;48.148;11.542;2023-05-10T11:14:13;17.40;99.90
45012;DHT22;63444;48.148;11.542;2023-05-10T11:16:43;17.30;99.90
45012;DHT22;63444;48.148;11.542;2023-05-10T11:19:16;17.20;99.90
45012;DHT22;63444;48.148;11.542;2023-05-10T11:24:30;17.40;99.90
45012;DHT22;63444;48.148;11.542;2023-05-10T11:26:56;17.30;99.90
45012;DHT22;63444;48.148;11.542;2023-05-10T11:29:22;17.20;99.90
45012;DHT22;63444;48.148;11.542;2023-05-10T11:31:49;17.10;99.90
45012;DHT22;63444;48.148;11.542;2023-05-10T11:34:25;17.00;99.90
45012;DHT22;63444;48.148;11.542;2023-05-10T11:36:52;16.90;99.90
45012;DHT22;63444;48.148;11.542;2023-05-10T11:39:19;16.90;99.90
45012;DHT22;63444;48.148;11.542;2023-05-10T11:41:49;16.70;99.90
45012;DHT22;63444;48.148;11.542;2023-05-10T11:44:15;16.60;99.90
45012;DHT22;63444;48.148;11.542;2023-05-10T11:46:40;16.50;99.90
45012;DHT22;63444;48.148;11.542;2023-05-10T11:49:07;16.50;99.90
45012;DHT22;63444;48.148;11.542;2023-05-10T11:51:36;16.30;99.90
45012;DHT22;63444;48.148;11.542;2023-05-10T11:54:06;16.30;99.90
45012;DHT22;63444;48.148;11.542;2023-05-10T11:56:32;16.20;99.90
45012;DHT22;63444;48.148;11.542;2023-05-10T11:58:58;16.10;99.90
45012;DHT22;63444;48.148;11.542;2023-05-10T12:01:26;16.20;99.90
45012;DHT22;63444;48.148;11.542;2023-05-10T12:03:53;15.90;99.90
45012;DHT22;63444;48.148;11.542;2023-05-10T12:06:20;15.90;99.90
45012;DHT22;63444;48.148;11.542;2023-05-10T12:08:47;15.80;99.90
45012;DHT22;63444;48.148;11.542;2023-05-10T12:11:15;15.70;99.90
45012;DHT22;63444;48.148;11.542;2023-05-10T12:13:43;15.50;99.90
45012;DHT22;63444;48.148;11.542;2023-05-10T12:16:22;15.50;99.90
45012;DHT22;63444;48.148;11.542;2023-05-10T12:18:52;15.40;99.90
45012;DHT22;63444;48.148;11.542;2023-05-10T12:21:20;15.30;99.90
45012;DHT22;63444;48.148;11.542;2023-05-10T12:23:48;15.10;99.90
45012;DHT22;63444;48.148;11.542;2023-05-10T12:26:14;15.00;99.90
45012;DHT22;63444;48.148;11.542;2023-05-10T12:28:39;14.90;99.90
45012;DHT22;63444;48.148;11.542;2023-05-10T12:31:06;14.90;99.90
45012;DHT22;63444;48.148;11.542;2023-05-10T12:33:39;14.90;99.90
45012;DHT22;63444;48.148;11.542;2023-05-10T12:36:06;14.90;99.90
45012;DHT22;63444;48.148;11.542;2023-05-10T12:38:40;14.90;99.90
45012;DHT22;63444;48.148;11.542;2023-05-10T12:41:12;14.90;99.90
45012;DHT22;63444;48.148;11.542;2023-05-10T12:43:39;14.90;99.90
45012;DHT22;63444;48.148;11.542;2023-05-10T12:48:31;15.00;99.90
45012;DHT22;63444;48.148;11.542;2023-05-10T12:50:59;15.00;99.90
45012;DHT22;63444;48.148;11.542;2023-05-10T12:53:24;15.10;99.90
45012;DHT22;63444;48.148;11.542;2023-05-10T12:55:50;15.10;99.90
45012;DHT22;63444;48.148;11.542;2023-05-10T12:58:16;15.10;99.90
45012;DHT22;63444;48.148;11.542;2023-05-10T13:00:41;15.20;99.90
45012;DHT22;63444;48.148;11.542;2023-05-10T13:03:07;15.10;99.90
45012;DHT22;63444;48.148;11.542;2023-05-10T13:05:33;15.00;99.90
45012;DHT22;63444;48.148;11.542;2023-05-10T13:07:58;14.90;99.90
45012;DHT22;63444;48.148;11.542;2023-05-10T13:10:24;15.00;99.90
45012;DHT22;63444;48.148;11.542;2023-05-10T13:12:50;15.00;99.90
45012;DHT22;63444;48.148;11.542;2023-05-10T13:15:16;15.00;99.90
45012;DHT22;63444;48.148;11.542;2023-05-10T13:17:42;15.00;99.90
45012;DHT22;63444;48.148;11.542;2023-05-10T13:20:08;15.00;99.90
45012;DHT22;63444;48.148;11.542;2023-05-10T13:22:37;15.10;99.90
45012;DHT22;63444;48.148;11.542;2023-05-10T13:25:03;15.10;99.90
45012;DHT22;63444;48.148;11.542;2023-05-10T13:27:29;15.10;99.90
45012;DHT22;63444;48.148;11.542;2023-05-10T13:29:54;15.10;99.90
45012;DHT22;63444;48.148;11.542;2023-05-10T13:32:20;14.90;99.90
45012;DHT22;63444;48.148;11.542;2023-05-10T13:34:46;14.90;99.90
45012;DHT22;63444;48.148;11.542;2023-05-10T13:37:11;14.90;99.90
45012;DHT22;63444;48.148;11.542;2023-05-10T13:39:37;15.00;99.90
45012;DHT22;63444;48.148;11.542;2023-05-10T13:42:03;14.90;99.90
45012;DHT22;63444;48.148;11.542;2023-05-10T13:44:29;15.00;99.90
45012;DHT22;63444;48.148;11.542;2023-05-10T13:46:55;14.90;99.90
45012;DHT22;63444;48.148;11.542;2023-05-10T13:49:21;15.00;99.90
45012;DHT22;63444;48.148;11.542;2023-05-10T13:51:47;14.80;99.90
45012;DHT22;63444;48.148;11.542;2023-05-10T13:54:13;14.90;99.90
45012;DHT22;63444;48.148;11.542;2023-05-10T13:56:39;14.80;99.90
45012;DHT22;63444;48.148;11.542;2023-05-10T13:59:06;14.80;99.90
45012;DHT22;63444;48.148;11.542;2023-05-10T14:01:33;14.90;99.90
45012;DHT22;63444;48.148;11.542;2023-05-10T14:03:59;14.90;99.90
45012;DHT22;63444;48.148;11.542;2023-05-10T14:06:24;14.80;99.90
45012;DHT22;63444;48.148;11.542;2023-05-10T14:08:50;14.80;99.90
45012;DHT22;63444;48.148;11.542;2023-05-10T14:11:15;14.70;99.90
45012;DHT22;63444;48.148;11.542;2023-05-10T14:13:41;14.70;99.90
45012;DHT22;63444;48.148;11.542;2023-05-10T14:16:07;14.70;99.90
45012;DHT22;63444;48.148;11.542;2023-05-10T14:18:33;14.70;99.90
45012;DHT22;63444;48.148;11.542;2023-05-10T14:20:58;14.50;99.90
45012;DHT22;63444;48.148;11.542;2023-05-10T14:23:25;14.50;99.90
45012;DHT22;63444;48.148;11.542;2023-05-10T14:25:51;14.50;99.90
45012;DHT22;63444;48.148;11.542;2023-05-10T14:28:18;14.60;99.90
45012;DHT22;63444;48.148;11.542;2023-05-10T14:30:44;14.60;99.90
45012;DHT22;63444;48.148;11.542;2023-05-10T14:33:10;14.80;99.90
45012;DHT22;63444;48.148;11.542;2023-05-10T14:35:35;14.60;99.90
45012;DHT22;63444;48.148;11.542;2023-05-10T14:38:02;14.60;99.90
45012;DHT22;63444;48.148;11.542;2023-05-10T14:40:29;14.60;99.90
45012;DHT22;63444;48.148;11.542;2023-05-10T14:42:54;14.60;99.90
45012;DHT22;63444;48.148;11.542;2023-05-10T14:45:21;14.60;99.90
45012;DHT22;63444;48.148;11.542;2023-05-10T14:47:48;14.60;99.90
45012;DHT22;63444;48.148;11.542;2023-05-10T14:50:14;14.70;99.90
45012;DHT22;63444;48.148;11.542;2023-05-10T14:52:39;14.60;99.90
45012;DHT22;63444;48.148;11.542;2023-05-10T14:55:08;14.60;99.90
45012;DHT22;63444;48.148;11.542;2023-05-10T14:57:33;14.50;99.90
45012;DHT22;63444;48.148;11.542;2023-05-10T15:02:49;14.40;99.90
45012;DHT22;63444;48.148;11.542;2023-05-10T15:05:15;14.30;99.90
45012;DHT22;63444;48.148;11.542;2023-05-10T15:07:40;14.30;99.90
45012;DHT22;63444;48.148;11.542;2023-05-10T15:10:09;14.20;99.90
45012;DHT22;63444;48.148;11.542;2023-05-10T15:12:34;14.30;99.90
45012;DHT22;63444;48.148;11.542;2023-05-10T15:15:00;14.30;99.90
45012;DHT22;63444;48.148;11.542;2023-05-10T15:17:26;14.30;99.90
45012;DHT22;63444;48.148;11.542;2023-05-10T15:19:51;14.20;99.90
45012;DHT22;63444;48.148;11.542;2023-05-10T15:22:17;14.30;99.90
45012;DHT22;63444;48.148;11.542;2023-05-10T15:24:43;14.20;99.90
45012;DHT22;63444;48.148;11.542;2023-05-10T15:27:08;14.20;99.90
45012;DHT22;63444;48.148;11.542;2023-05-10T15:29:34;14.20;99.90
45012;DHT22;63444;48.148;11.542;2023-05-10T15:32:01;14.20;99.90
45012;DHT22;63444;48.148;11.542;2023-05-10T15:34:28;14.20;99.90
45012;DHT22;63444;48.148;11.542;2023-05-10T15:36:53;14.20;99.90
45012;DHT22;63444;48.148;11.542;2023-05-10T15:39:19;14.20;99.90
45012;DHT22;63444;48.148;11.542;2023-05-10T15:41:44;14.20;99.90
45012;DHT22;63444;48.148;11.542;2023-05-10T15:44:10;14.20;99.90
45012;DHT22;63444;48.148;11.542;2023-05-10T15:46:36;14.20;99.90
45012;DHT22;63444;48.148;11.542;2023-05-10T15:49:03;14.20;99.90
45012;DHT22;63444;48.148;11.542;2023-05-10T15:51:34;14.00;99.90